Time;durP1;ratioP1;P1;durP2;ratioP2;P2;SDS_P1;SDS_P2;PMS_P1;PMS_P2;Temp;Humidity;BMP_temperature;BMP_pressure;BME280_temperature;BME280_humidity;BME280_pressure;Samples;Min_cycle;Max_cycle;Signal;HPM_P1;HPM_P2
2023/10/26 00:02:08;;;;;;;24.20;10.73;;;10.20;99.90;;;;;;5020277;28;20037;-51
2023/10/26 00:04:34;;;;;;;27.30;10.67;;;10.20;99.90;;;;;;5037906;28;20030;-52
2023/10/26 00:07:00;;;;;;;25.07;11.33;;;10.20;99.90;;;;;;5020827;28;20037;-50
2023/10/26 00:09:26;;;;;;;25.40;10.10;;;10.20;99.90;;;;;;5037411;28;20040;-53
2023/10/26 00:11:52;;;;;;;26.20;10.33;;;10.20;99.90;;;;;;5038219;28;20064;-53
2023/10/26 00:14:18;;;;;;;23.17;10.17;;;10.20;99.90;;;;;;5020987;28;20482;-52
2023/10/26 00:16:44;;;;;;;24.07;10.70;;;10.20;99.90;;;;;;5038022;28;20037;-53
2023/10/26 00:19:10;;;;;;;23.87;10.67;;;10.20;99.90;;;;;;5037292;28;20025;-54
2023/10/26 00:21:35;;;;;;;22.77;10.00;;;10.20;99.90;;;;;;5038339;28;20048;-53
2023/10/26 00:24:01;;;;;;;26.07;10.27;;;10.30;99.90;;;;;;5037458;28;20394;-53
2023/10/26 00:26:27;;;;;;;25.40;10.53;;;10.20;99.90;;;;;;5037995;28;20025;-54
2023/10/26 00:28:53;;;;;;;20.07;9.83;;;10.30;99.90;;;;;;5019908;28;20021;-53
2023/10/26 00:31:19;;;;;;;22.37;10.47;;;10.30;99.90;;;;;;5037202;28;20033;-55
2023/10/26 00:33:45;;;;;;;23.10;11.30;;;10.30;99.90;;;;;;5019582;28;20045;-53
2023/10/26 00:36:10;;;;;;;22.53;10.17;;;10.30;99.90;;;;;;5038008;28;20025;-50
2023/10/26 00:38:36;;;;;;;21.63;9.63;;;10.30;99.90;;;;;;5038070;28;20094;-51
2023/10/26 00:41:02;;;;;;;21.27;9.47;;;10.30;99.90;;;;;;5038012;28;20466;-53
2023/10/26 00:43:27;;;;;;;18.77;9.10;;;10.30;99.90;;;;;;5020742;28;20037;-54
2023/10/26 00:45:54;;;;;;;22.13;9.97;;;10.40;99.90;;;;;;5038242;28;20033;-54
2023/10/26 00:48:20;;;;;;;20.33;9.77;;;10.30;99.90;;;;;;5020024;28;20112;-54
2023/10/26 00:50:47;;;;;;;23.10;9.47;;;10.30;99.90;;;;;;5020415;28;20036;-54
2023/10/26 00:53:15;;;;;;;20.43;9.50;;;10.40;99.90;;;;;;5037643;28;20037;-50
2023/10/26 00:55:41;;;;;;;18.23;8.80;;;10.40;99.90;;;;;;5019608;28;20044;-52
2023/10/26 00:58:08;;;;;;;20.50;9.07;;;10.30;99.90;;;;;;5037545;28;20451;-54
2023/10/26 01:00:34;;;;;;;19.97;9.03;;;10.30;99.90;;;;;;5038058;28;20025;-53
2023/10/26 01:03:00;;;;;;;19.77;9.67;;;10.30;99.90;;;;;;5020037;28;20125;-54
2023/10/26 01:05:26;;;;;;;19.13;9.00;;;10.40;99.90;;;;;;5037296;28;20068;-54
2023/10/26 01:07:52;;;;;;;18.10;8.57;;;10.40;99.90;;;;;;5019929;28;20030;-53
2023/10/26 01:10:17;;;;;;;17.27;8.23;;;10.30;99.90;;;;;;5003616;28;20037;-55
2023/10/26 01:12:43;;;;;;;17.03;8.67;;;10.30;99.90;;;;;;5020543;28;20064;-52
2023/10/26 01:15:09;;;;;;;17.83;8.60;;;10.40;99.90;;;;;;5037914;28;20040;-55
2023/10/26 01:17:37;;;;;;;21.30;10.13;;;10.40;99.90;;;;;;5019515;28;20029;-53
2023/10/26 01:20:05;;;;;;;18.23;8.83;;;10.40;99.90;;;;;;5019858;28;20030;-55
2023/10/26 01:22:32;;;;;;;19.50;8.57;;;10.30;99.90;;;;;;5019635;28;20089;-50
2023/10/26 01:24:58;;;;;;;20.17;9.10;;;10.30;99.90;;;;;;5019519;28;20034;-52
2023/10/26 01:27:23;;;;;;;18.87;8.53;;;10.20;99.90;;;;;;5002802;28;20101;-54
2023/10/26 01:29:49;;;;;;;18.97;9.30;;;10.20;99.90;;;;;;5037038;28;20103;-52
2023/10/26 01:32:14;;;;;;;17.43;8.60;;;10.20;99.90;;;;;;5019390;28;20510;-54
2023/10/26 01:34:42;;;;;;;18.67;9.03;;;10.20;99.90;;;;;;5019271;28;20037;-54
2023/10/26 01:37:07;;;;;;;17.90;8.57;;;10.20;99.90;;;;;;5036468;28;20474;-54
2023/10/26 01:39:33;;;;;;;22.20;10.03;;;10.20;99.90;;;;;;5037360;28;20129;-53
2023/10/26 01:41:59;;;;;;;20.37;9.93;;;10.20;99.90;;;;;;5019592;28;20022;-55
2023/10/26 01:44:24;;;;;;;24.00;10.27;;;10.10;99.90;;;;;;5036517;28;20030;-51
2023/10/26 01:46:50;;;;;;;21.17;9.37;;;10.10;99.90;;;;;;5002606;28;20573;-53
2023/10/26 01:49:16;;;;;;;18.53;8.90;;;10.10;99.90;;;;;;5019023;28;20033;-53
2023/10/26 01:51:42;;;;;;;19.13;8.60;;;10.00;99.90;;;;;;5018545;28;20044;-52
2023/10/26 01:54:07;;;;;;;20.20;9.77;;;10.00;99.90;;;;;;5019183;28;20063;-53
2023/10/26 01:56:33;;;;;;;22.20;9.90;;;10.00;99.90;;;;;;5019014;28;20026;-54
2023/10/26 01:58:58;;;;;;;27.97;10.97;;;10.00;99.90;;;;;;5035850;28;20103;-54
2023/10/26 02:01:24;;;;;;;25.93;10.77;;;10.00;99.90;;;;;;5019267;28;20060;-53
2023/10/26 02:03:51;;;;;;;29.23;11.60;;;10.10;99.90;;;;;;5018944;28;20030;-50
2023/10/26 02:06:17;;;;;;;24.40;10.10;;;10.00;99.90;;;;;;5018590;28;20033;-53
2023/10/26 02:08:42;;;;;;;26.37;10.37;;;10.10;99.90;;;;;;5018689;28;20100;-52
2023/10/26 02:11:08;;;;;;;26.10;10.63;;;10.10;99.90;;;;;;5018851;28;20095;-54
2023/10/26 02:13:35;;;;;;;23.57;10.77;;;10.00;99.90;;;;;;5018428;28;20086;-54
2023/10/26 02:16:02;;;;;;;29.63;11.13;;;10.00;99.90;;;;;;5018363;28;20034;-54
2023/10/26 02:18:29;;;;;;;29.70;12.10;;;10.00;99.90;;;;;;5018864;28;20414;-53
2023/10/26 02:20:55;;;;;;;25.67;12.10;;;10.00;99.90;;;;;;5018510;28;20131;-54
2023/10/26 02:23:23;;;;;;;33.20;11.90;;;10.00;99.90;;;;;;5002300;28;20033;-53
2023/10/26 02:25:49;;;;;;;22.55;10.90;;;10.00;99.90;;;;;;5036037;28;20043;-53
2023/10/26 02:28:19;;;;;;;24.07;11.07;;;10.00;99.90;;;;;;5018215;28;20033;-52
2023/10/26 02:30:45;;;;;;;25.73;11.33;;;10.00;99.90;;;;;;5018086;28;20433;-54
2023/10/26 02:33:11;;;;;;;34.07;11.23;;;10.10;99.90;;;;;;5036149;28;20403;-55
2023/10/26 02:35:40;;;;;;;24.13;10.20;;;10.10;99.90;;;;;;5036156;28;20037;-53
2023/10/26 02:38:06;;;;;;;25.65;10.18;;;10.10;99.90;;;;;;5035692;28;20505;-53
2023/10/26 02:40:32;;;;;;;22.50;10.57;;;10.10;99.90;;;;;;5018329;28;20034;-53
2023/10/26 02:42:59;;;;;;;24.93;10.80;;;10.10;99.90;;;;;;5035680;28;20030;-55
2023/10/26 02:45:25;;;;;;;23.87;11.13;;;10.00;99.90;;;;;;5017470;28;20029;-50
2023/10/26 02:47:50;;;;;;;21.20;10.23;;;10.00;99.90;;;;;;5018530;28;20034;-53
2023/10/26 02:50:16;;;;;;;24.60;9.83;;;10.10;99.90;;;;;;5018320;28;20033;-53
2023/10/26 02:52:42;;;;;;;24.60;10.80;;;10.10;99.90;;;;;;5036394;28;20482;-54
2023/10/26 02:55:08;;;;;;;24.77;10.23;;;10.10;99.90;;;;;;5020202;28;20036;-55
2023/10/26 02:57:33;;;;;;;19.33;10.13;;;10.10;99.90;;;;;;5039331;28;20462;-55
2023/10/26 02:59:59;;;;;;;21.70;9.80;;;10.10;99.90;;;;;;5021952;28;20030;-52
2023/10/26 03:02:24;;;;;;;17.97;9.17;;;10.10;99.90;;;;;;5021314;28;20501;-54
2023/10/26 03:04:50;;;;;;;22.10;9.80;;;10.10;99.90;;;;;;5038706;28;20034;-54
2023/10/26 03:07:22;;;;;;;20.47;10.33;;;10.10;99.90;;;;;;5021093;28;20037;-55
2023/10/26 03:09:51;;;;;;;19.50;9.30;;;10.10;99.90;;;;;;5020853;28;20581;-54
2023/10/26 03:12:18;;;;;;;19.25;9.18;;;10.10;99.90;;;;;;5021142;28;20470;-54
2023/10/26 03:14:44;;;;;;;17.60;9.20;;;10.10;99.90;;;;;;5038033;28;20038;-54
2023/10/26 03:17:14;;;;;;;20.27;9.20;;;10.10;99.90;;;;;;5020980;28;20072;-54
2023/10/26 03:19:41;;;;;;;21.83;10.17;;;10.10;99.90;;;;;;5021817;28;20057;-52
2023/10/26 03:22:06;;;;;;;21.97;10.03;;;10.00;99.90;;;;;;5021200;28;20371;-54
2023/10/26 03:24:32;;;;;;;18.60;9.40;;;10.10;99.90;;;;;;5038689;28;20155;-53
2023/10/26 03:26:58;;;;;;;17.43;9.17;;;10.00;99.90;;;;;;5021583;28;20037;-54
2023/10/26 03:29:24;;;;;;;21.23;10.20;;;10.00;99.90;;;;;;5038672;28;20478;-53
2023/10/26 03:31:51;;;;;;;18.57;9.23;;;10.00;99.90;;;;;;5039089;28;20033;-53
2023/10/26 03:34:17;;;;;;;23.93;10.30;;;10.00;99.90;;;;;;5021167;28;20033;-51
2023/10/26 03:36:42;;;;;;;21.97;10.03;;;10.00;99.90;;;;;;5020882;28;20029;-52
2023/10/26 03:39:08;;;;;;;23.50;9.87;;;10.00;99.90;;;;;;5020905;28;20501;-53
2023/10/26 03:41:33;;;;;;;23.43;11.23;;;9.90;99.90;;;;;;5038564;28;20032;-51
2023/10/26 03:43:59;;;;;;;20.13;10.20;;;9.90;99.90;;;;;;5020717;28;20033;-52
2023/10/26 03:46:25;;;;;;;19.77;9.87;;;9.90;99.90;;;;;;5021232;28;20034;-50
2023/10/26 03:48:51;;;;;;;24.77;10.23;;;9.90;99.90;;;;;;5020642;28;20037;-53
2023/10/26 03:51:16;;;;;;;23.30;9.63;;;10.00;99.90;;;;;;5020944;28;20030;-54
2023/10/26 03:53:42;;;;;;;20.90;10.03;;;10.00;99.90;;;;;;5020497;28;20532;-51
2023/10/26 03:56:08;;;;;;;22.83;10.20;;;9.90;99.90;;;;;;5020797;28;20036;-55
2023/10/26 03:58:34;;;;;;;22.87;10.20;;;9.90;99.90;;;;;;5019957;28;20479;-55
2023/10/26 04:01:00;;;;;;;24.83;10.40;;;9.90;99.90;;;;;;5020368;28;20025;-54
2023/10/26 04:03:27;;;;;;;21.30;9.77;;;9.90;99.90;;;;;;5020553;28;20029;-53
2023/10/26 04:05:53;;;;;;;23.73;10.27;;;9.90;99.90;;;;;;5019816;28;20079;-49
2023/10/26 04:08:18;;;;;;;20.10;9.33;;;10.00;99.90;;;;;;5037288;28;20486;-54
2023/10/26 04:10:44;;;;;;;21.83;10.47;;;10.00;99.90;;;;;;5037802;28;20068;-54
2023/10/26 04:13:10;;;;;;;21.03;9.90;;;10.00;99.90;;;;;;5037554;28;20117;-53
2023/10/26 04:15:35;;;;;;;20.13;9.50;;;10.00;99.90;;;;;;5037991;28;20040;-54
2023/10/26 04:18:07;;;;;;;21.47;10.23;;;9.90;99.90;;;;;;5020464;28;20040;-54
2023/10/26 04:20:34;;;;;;;21.20;9.83;;;9.90;99.90;;;;;;5020290;28;20113;-54
2023/10/26 04:23:00;;;;;;;20.67;10.10;;;9.90;99.90;;;;;;5037481;28;20060;-51
2023/10/26 04:25:28;;;;;;;18.73;9.57;;;10.00;99.90;;;;;;5019842;28;20080;-53
2023/10/26 04:27:55;;;;;;;23.70;10.73;;;9.90;99.90;;;;;;5037704;28;20041;-54
2023/10/26 04:30:21;;;;;;;21.00;9.93;;;10.00;99.90;;;;;;5037153;28;20065;-53
2023/10/26 04:32:47;;;;;;;21.90;10.40;;;10.00;99.90;;;;;;5037332;28;20076;-53
2023/10/26 04:35:13;;;;;;;20.63;10.07;;;10.00;99.90;;;;;;5036574;28;20030;-52
2023/10/26 04:37:38;;;;;;;20.63;10.40;;;10.00;99.90;;;;;;5037486;28;20025;-53
2023/10/26 04:40:05;;;;;;;22.23;10.53;;;9.90;99.90;;;;;;5036683;28;20036;-54
2023/10/26 04:42:31;;;;;;;25.73;10.83;;;9.90;99.90;;;;;;5037691;28;20105;-53
2023/10/26 04:44:57;;;;;;;23.80;10.03;;;9.90;99.90;;;;;;5037188;28;20371;-53
2023/10/26 04:47:23;;;;;;;20.27;9.73;;;9.90;99.90;;;;;;5037161;28;20033;-54
2023/10/26 04:49:49;;;;;;;23.20;10.83;;;9.90;99.90;;;;;;5019025;28;20037;-54
2023/10/26 04:52:18;;;;;;;20.80;10.17;;;9.90;99.90;;;;;;5037145;28;20044;-55
2023/10/26 04:54:44;;;;;;;22.38;10.07;;;9.90;99.90;;;;;;5036697;28;20120;-55
2023/10/26 04:57:09;;;;;;;21.30;9.70;;;9.90;99.90;;;;;;5036237;28;20076;-54
2023/10/26 04:59:35;;;;;;;22.00;10.07;;;9.90;99.90;;;;;;5036106;28;20448;-54
2023/10/26 05:02:01;;;;;;;22.60;9.73;;;9.90;99.90;;;;;;5036993;28;20030;-52
2023/10/26 05:04:26;;;;;;;23.63;11.27;;;9.90;99.90;;;;;;5035707;28;20021;-55
2023/10/26 05:06:52;;;;;;;24.13;10.90;;;9.90;99.90;;;;;;5036134;28;20482;-52
2023/10/26 05:09:17;;;;;;;21.97;10.70;;;10.00;99.90;;;;;;5035821;28;20018;-53
2023/10/26 05:11:43;;;;;;;26.13;10.03;;;9.90;99.90;;;;;;5036620;28;20035;-52
2023/10/26 05:14:09;;;;;;;24.17;9.97;;;9.90;99.90;;;;;;5019313;28;20036;-53
2023/10/26 05:16:36;;;;;;;21.67;10.40;;;9.80;99.90;;;;;;5018449;28;20430;-51
2023/10/26 05:19:02;;;;;;;24.10;10.50;;;9.80;99.90;;;;;;5036036;28;20123;-53
2023/10/26 05:21:28;;;;;;;25.93;11.47;;;9.70;99.90;;;;;;5036888;28;20170;-55
2023/10/26 05:23:53;;;;;;;30.00;11.30;;;9.70;99.90;;;;;;5019360;28;20033;-53
2023/10/26 05:26:19;;;;;;;26.10;11.17;;;9.70;99.90;;;;;;5036986;28;20085;-51
2023/10/26 05:28:47;;;;;;;26.83;11.93;;;9.60;99.90;;;;;;5018655;28;20029;-53
2023/10/26 05:31:12;;;;;;;24.70;10.73;;;9.60;99.90;;;;;;5036357;28;20053;-54
2023/10/26 05:33:38;;;;;;;29.70;12.67;;;9.60;99.90;;;;;;5018449;28;20037;-52
2023/10/26 05:36:04;;;;;;;27.60;10.77;;;9.60;99.90;;;;;;5036511;28;20085;-50
2023/10/26 05:38:29;;;;;;;25.30;10.37;;;9.60;99.90;;;;;;5036826;28;20040;-52
2023/10/26 05:40:56;;;;;;;21.57;9.97;;;9.60;99.90;;;;;;5036576;28;20044;-52
2023/10/26 05:43:22;;;;;;;28.47;11.70;;;9.50;99.90;;;;;;5036354;28;20035;-53
2023/10/26 05:45:48;;;;;;;21.87;10.57;;;9.60;99.90;;;;;;5036598;28;20026;-49
2023/10/26 05:48:16;;;;;;;25.30;11.33;;;9.50;99.90;;;;;;5018701;28;20047;-52
2023/10/26 05:50:42;;;;;;;24.97;11.50;;;9.50;99.90;;;;;;5036456;28;20457;-53
2023/10/26 05:53:09;;;;;;;22.53;9.90;;;9.50;99.90;;;;;;5036852;28;20029;-52
2023/10/26 05:55:35;;;;;;;24.50;10.37;;;9.50;99.90;;;;;;5035777;28;20030;-55
2023/10/26 05:58:01;;;;;;;27.87;10.53;;;9.50;99.90;;;;;;5035592;28;20043;-54
2023/10/26 06:00:26;;;;;;;30.97;11.00;;;9.50;99.90;;;;;;5036397;28;20089;-53
2023/10/26 06:02:52;;;;;;;30.27;11.27;;;9.50;99.90;;;;;;5036991;28;20079;-52
2023/10/26 06:05:18;;;;;;;29.93;11.53;;;9.50;99.90;;;;;;5036506;28;20112;-54
2023/10/26 06:07:43;;;;;;;31.67;12.03;;;9.50;99.90;;;;;;5036435;28;20017;-54
2023/10/26 06:10:10;;;;;;;27.27;10.57;;;9.60;99.90;;;;;;5035790;28;20033;-52
2023/10/26 06:12:36;;;;;;;24.03;10.73;;;9.60;99.90;;;;;;5036301;28;20026;-54
2023/10/26 06:15:02;;;;;;;25.83;10.37;;;9.60;99.90;;;;;;5036665;28;20041;-54
2023/10/26 06:17:27;;;;;;;27.63;10.77;;;9.70;99.90;;;;;;5018616;28;20331;-52
2023/10/26 06:19:53;;;;;;;20.77;9.97;;;9.80;99.90;;;;;;5036190;28;20029;-54
2023/10/26 06:22:19;;;;;;;24.23;10.63;;;9.80;99.90;;;;;;5036376;28;20029;-54
2023/10/26 06:24:44;;;;;;;26.87;11.43;;;9.80;99.90;;;;;;5035667;28;20104;-51
2023/10/26 06:27:11;;;;;;;27.43;11.40;;;9.90;99.90;;;;;;5036118;28;20029;-50
2023/10/26 06:29:36;;;;;;;24.20;10.57;;;9.90;99.90;;;;;;5020149;28;20071;-53
2023/10/26 06:32:02;;;;;;;24.20;11.63;;;9.90;99.90;;;;;;5040247;28;20018;-54
2023/10/26 06:34:29;;;;;;;23.57;10.67;;;9.90;99.90;;;;;;5039623;28;20075;-53
2023/10/26 06:36:54;;;;;;;23.17;10.23;;;9.80;99.90;;;;;;5040035;28;20509;-55
2023/10/26 06:39:20;;;;;;;28.10;11.27;;;9.80;99.90;;;;;;5039776;28;20034;-54
2023/10/26 06:41:46;;;;;;;23.93;10.10;;;9.80;99.90;;;;;;5040073;28;20021;-53
2023/10/26 06:44:15;;;;;;;22.23;10.00;;;9.80;99.90;;;;;;5021671;28;20054;-54
2023/10/26 06:46:41;;;;;;;21.43;9.83;;;9.70;99.90;;;;;;5039594;28;20033;-55
2023/10/26 06:49:07;;;;;;;22.63;9.93;;;9.70;99.90;;;;;;5021503;28;20689;-50
2023/10/26 06:51:32;;;;;;;22.30;10.17;;;9.70;99.90;;;;;;5039234;28;20041;-50
2023/10/26 06:53:58;;;;;;;23.30;10.67;;;9.70;99.90;;;;;;5039372;28;20032;-52
2023/10/26 06:56:23;;;;;;;23.80;10.07;;;9.80;99.90;;;;;;5039145;28;20029;-54
2023/10/26 06:58:49;;;;;;;25.53;10.50;;;9.80;99.90;;;;;;5021749;28;20104;-52
2023/10/26 07:01:15;;;;;;;25.33;10.27;;;9.70;99.90;;;;;;5038987;28;20026;-55
2023/10/26 07:03:41;;;;;;;22.53;9.50;;;9.70;99.90;;;;;;5021690;28;20032;-52
2023/10/26 07:06:06;;;;;;;21.93;9.83;;;9.70;99.90;;;;;;5021826;28;20478;-55
2023/10/26 07:08:33;;;;;;;22.83;9.77;;;9.70;99.90;;;;;;5020948;28;20037;-52
2023/10/26 07:11:04;;;;;;;24.17;9.40;;;9.70;99.90;;;;;;5039351;28;20041;-55
2023/10/26 07:13:30;;;;;;;21.93;9.60;;;9.70;99.90;;;;;;5038881;28;20089;-54
2023/10/26 07:16:01;;;;;;;21.07;9.27;;;9.70;99.90;;;;;;5038747;28;20509;-53
2023/10/26 07:18:27;;;;;;;22.43;9.73;;;9.70;99.90;;;;;;5039430;28;20048;-54
2023/10/26 07:20:53;;;;;;;21.37;9.83;;;9.70;99.90;;;;;;5038955;28;20025;-54
2023/10/26 07:23:19;;;;;;;22.20;9.40;;;9.70;99.90;;;;;;5038804;28;20029;-55
2023/10/26 07:25:45;;;;;;;21.40;9.73;;;9.70;99.90;;;;;;5038584;28;20033;-52
2023/10/26 07:28:11;;;;;;;22.77;8.67;;;9.70;99.90;;;;;;5038236;28;20029;-52
2023/10/26 07:30:41;;;;;;;23.97;10.43;;;9.70;99.90;;;;;;5038669;28;20051;-54
2023/10/26 07:33:07;;;;;;;23.10;10.27;;;9.70;99.90;;;;;;5020741;28;20041;-54
2023/10/26 07:35:40;;;;;;;25.03;10.10;;;9.60;99.90;;;;;;5038774;28;20025;-54
2023/10/26 07:38:09;;;;;;;21.90;8.80;;;9.60;99.90;;;;;;5038489;28;20044;-55
2023/10/26 07:40:35;;;;;;;20.17;9.57;;;9.60;99.90;;;;;;5037382;28;20055;-55
2023/10/26 07:43:01;;;;;;;20.90;9.57;;;9.70;99.90;;;;;;5038300;28;20540;-54
2023/10/26 07:45:27;;;;;;;20.27;9.33;;;9.60;99.90;;;;;;5038687;28;20033;-53
2023/10/26 07:47:55;;;;;;;19.27;9.33;;;9.60;99.90;;;;;;5037871;28;20076;-55
2023/10/26 07:50:22;;;;;;;24.17;9.73;;;9.60;99.90;;;;;;5038025;28;20478;-54
2023/10/26 07:52:47;;;;;;;24.20;10.00;;;9.70;99.90;;;;;;5038330;28;20132;-51
2023/10/26 07:55:13;;;;;;;23.60;9.80;;;9.70;99.90;;;;;;5038584;28;20072;-52
2023/10/26 07:57:41;;;;;;;23.77;10.37;;;9.70;99.90;;;;;;5037958;28;20037;-54
2023/10/26 08:00:08;;;;;;;24.20;10.60;;;9.70;99.90;;;;;;5020066;28;20033;-53
2023/10/26 08:02:38;;;;;;;23.47;9.50;;;9.70;99.90;;;;;;5038449;28;20032;-55
2023/10/26 08:05:04;;;;;;;19.63;8.97;;;9.80;99.90;;;;;;5020168;28;20037;-53
2023/10/26 08:07:29;;;;;;;20.03;9.10;;;9.80;99.90;;;;;;5038492;28;20029;-54
2023/10/26 08:09:56;;;;;;;21.63;9.63;;;9.90;99.90;;;;;;5037157;28;20116;-53
2023/10/26 08:12:23;;;;;;;22.77;10.00;;;9.80;99.90;;;;;;5038054;28;20099;-52
2023/10/26 08:14:51;;;;;;;25.40;10.83;;;9.80;99.90;;;;;;5037755;28;20029;-53
2023/10/26 08:17:17;;;;;;;24.63;10.13;;;9.80;99.90;;;;;;5037881;28;20034;-54
2023/10/26 08:19:42;;;;;;;22.70;11.00;;;10.00;99.90;;;;;;5038380;28;20037;-50
2023/10/26 08:22:10;;;;;;;22.73;10.23;;;10.00;99.90;;;;;;5038349;28;20025;-52
2023/10/26 08:24:36;;;;;;;21.63;9.57;;;10.10;99.90;;;;;;5019962;28;20128;-50
2023/10/26 08:27:02;;;;;;;22.73;10.17;;;10.10;99.90;;;;;;5037957;28;20060;-55
2023/10/26 08:29:29;;;;;;;24.47;9.93;;;10.20;99.90;;;;;;5037512;28;20048;-52
2023/10/26 08:31:55;;;;;;;19.87;9.57;;;10.20;99.90;;;;;;5037325;28;20026;-51
2023/10/26 08:34:20;;;;;;;21.93;9.23;;;10.30;99.90;;;;;;5020565;28;20033;-51
2023/10/26 08:36:46;;;;;;;21.67;9.67;;;10.20;99.90;;;;;;5037416;28;20029;-53
2023/10/26 08:39:12;;;;;;;25.80;11.03;;;10.20;99.90;;;;;;5020131;28;20033;-53
2023/10/26 08:41:40;;;;;;;31.53;13.20;;;10.20;99.90;;;;;;5037076;28;20037;-52
2023/10/26 08:44:05;;;;;;;41.97;15.77;;;10.20;99.90;;;;;;5019564;28;20067;-54
2023/10/26 08:46:31;;;;;;;38.10;16.47;;;10.30;99.90;;;;;;5037799;28;20030;-52
2023/10/26 08:49:00;;;;;;;45.43;16.60;;;10.20;99.90;;;;;;5037434;28;20037;-52
2023/10/26 08:51:27;;;;;;;50.67;17.27;;;10.30;99.90;;;;;;5037348;28;20026;-54
2023/10/26 08:53:53;;;;;;;38.63;14.77;;;10.40;99.90;;;;;;5036854;28;20037;-53
2023/10/26 08:56:21;;;;;;;31.33;12.03;;;10.40;99.90;;;;;;5019522;28;20036;-51
2023/10/26 08:58:48;;;;;;;26.77;11.53;;;10.50;99.90;;;;;;5019177;28;20116;-55
2023/10/26 09:01:14;;;;;;;25.90;11.40;;;10.50;99.90;;;;;;5037887;28;20079;-52
2023/10/26 09:03:40;;;;;;;21.97;9.73;;;10.60;99.90;;;;;;5037508;28;20036;-54
2023/10/26 09:06:06;;;;;;;25.47;10.57;;;10.70;99.90;;;;;;5036586;28;20025;-54
2023/10/26 09:08:31;;;;;;;20.30;9.00;;;10.70;99.90;;;;;;5037865;28;20033;-52
2023/10/26 09:10:57;;;;;;;19.50;8.67;;;10.70;99.90;;;;;;5036757;28;20118;-50
2023/10/26 09:13:27;;;;;;;19.08;8.73;;;10.70;99.90;;;;;;5037476;28;20088;-51
2023/10/26 09:15:57;;;;;;;20.27;9.02;;;10.70;99.90;;;;;;5037187;28;20116;-52
2023/10/26 09:18:23;;;;;;;;;;;10.80;99.90;;;;;;5036030;28;20038;-55
2023/10/26 09:21:03;;;;;;;16.43;7.33;;;10.80;99.90;;;;;;5035307;28;19913;-54
2023/10/26 09:23:31;;;;;;;19.53;8.77;;;10.80;99.90;;;;;;5035206;28;20033;-54
2023/10/26 09:25:58;;;;;;;16.40;7.83;;;10.80;99.90;;;;;;5035276;28;20120;-52
2023/10/26 09:28:24;;;;;;;19.40;8.80;;;10.80;99.90;;;;;;5018488;28;20071;-53
2023/10/26 09:30:50;;;;;;;18.90;8.67;;;10.80;99.90;;;;;;5017829;28;20037;-53
2023/10/26 09:33:25;;;;;;;18.97;9.00;;;10.80;99.90;;;;;;5035194;28;20115;-51
2023/10/26 09:35:51;;;;;;;18.37;8.57;;;10.80;99.90;;;;;;5035242;28;20030;-53
2023/10/26 09:38:21;;;;;;;19.03;8.70;;;10.90;99.90;;;;;;5035254;28;20094;-51
2023/10/26 09:40:49;;;;;;;21.35;9.40;;;11.00;99.90;;;;;;5034971;28;20051;-54
2023/10/26 09:43:14;;;;;;;20.90;9.65;;;11.20;99.90;;;;;;5034890;28;20037;-52
2023/10/26 09:45:41;;;;;;;19.95;9.60;;;11.60;99.90;;;;;;5033962;28;20112;-50
2023/10/26 09:48:07;;;;;;;20.35;9.52;;;12.40;99.90;;;;;;5033188;28;20457;-51
2023/10/26 09:50:39;;;;;;;13.85;7.63;;;13.60;99.90;;;;;;5032636;28;20064;-54
2023/10/26 09:53:06;;;;;;;9.48;5.75;;;14.90;99.90;;;;;;5033341;28;20037;-50
2023/10/26 09:55:32;;;;;;;8.95;5.20;;;15.30;99.90;;;;;;5035007;28;20406;-54
2023/10/26 09:58:04;;;;;;;10.40;5.72;;;15.50;99.90;;;;;;5035208;28;20113;-55
2023/10/26 10:00:32;;;;;;;10.80;5.88;;;15.80;99.90;;;;;;5016980;28;20037;-52
2023/10/26 10:03:11;;;;;;;7.60;4.22;;;15.80;99.90;;;;;;5034597;28;20064;-55
2023/10/26 10:05:41;;;;;;;7.30;4.40;;;16.10;99.90;;;;;;5038470;28;20103;-54
2023/10/26 10:08:07;;;;;;;7.75;4.03;;;16.60;99.90;;;;;;5038667;28;20120;-55
2023/10/26 10:10:33;;;;;;;9.27;4.70;;;16.40;99.90;;;;;;5038940;28;20449;-54
2023/10/26 10:13:00;;;;;;;9.10;5.55;;;16.50;99.90;;;;;;5039089;28;20128;-54
2023/10/26 10:15:39;;;;;;;9.70;5.70;;;16.70;99.90;;;;;;5038071;28;20036;-55
2023/10/26 10:18:08;;;;;;;;;;;16.70;99.90;;;;;;5004807;28;20029;-54
2023/10/26 10:20:37;;;;;;;;;;;17.00;99.90;;;;;;5039267;28;20492;-54
2023/10/26 10:23:04;;;;;;;10.95;5.72;;;16.50;99.90;;;;;;5038740;28;19909;-54
2023/10/26 10:25:48;;;;;;;8.95;4.93;;;15.70;99.90;;;;;;5038134;28;20061;-53
2023/10/26 10:28:13;;;;;;;12.93;6.57;;;15.20;99.90;;;;;;5037280;28;20053;-54
2023/10/26 10:30:56;;;;;;;13.30;6.68;;;14.80;99.90;;;;;;5037874;28;20033;-52
2023/10/26 10:33:27;;;;;;;13.50;6.70;;;14.30;99.90;;;;;;5038512;28;20140;-55
2023/10/26 10:36:02;;;;;;;14.27;7.05;;;13.70;99.90;;;;;;5037738;28;20037;-54
2023/10/26 10:38:31;;;;;;;13.25;6.70;;;13.30;99.90;;;;;;5037514;28;20237;-54
2023/10/26 10:41:01;;;;;;;13.07;6.22;;;13.00;99.90;;;;;;5037951;28;20029;-55
2023/10/26 10:43:38;;;;;;;14.32;6.70;;;12.90;99.90;;;;;;5037931;28;20592;-53
2023/10/26 10:46:19;;;;;;;11.65;6.05;;;12.70;99.90;;;;;;5037071;28;20411;-55
2023/10/26 10:49:05;;;;;;;11.07;5.90;;;12.60;99.90;;;;;;5037699;28;20044;-55
2023/10/26 10:51:36;;;;;;;11.63;5.93;;;12.50;99.90;;;;;;5037644;28;20029;-52
2023/10/26 10:54:05;;;;;;;14.70;6.07;;;12.50;99.90;;;;;;5037862;28;20120;-54
2023/10/26 10:56:37;;;;;;;10.73;5.70;;;12.50;99.90;;;;;;5038059;28;20037;-54
2023/10/26 10:59:17;;;;;;;13.13;6.05;;;12.30;99.90;;;;;;5037421;28;20104;-51
2023/10/26 11:01:43;;;;;;;12.55;5.32;;;12.20;99.90;;;;;;5038176;28;20029;-55
2023/10/26 11:04:13;;;;;;;8.13;4.22;;;12.20;99.90;;;;;;5038416;28;20121;-51
2023/10/26 11:06:47;;;;;;;8.48;4.22;;;12.10;99.90;;;;;;5037765;28;20451;-54
2023/10/26 11:09:23;;;;;;;8.80;4.10;;;12.10;99.90;;;;;;5036967;28;20444;-53
2023/10/26 11:11:49;;;;;;;6.55;3.22;;;12.10;99.90;;;;;;5020186;28;20045;-53
2023/10/26 11:14:17;;;;;;;8.30;3.83;;;12.10;99.90;;;;;;5037465;28;20048;-54
2023/10/26 11:16:43;;;;;;;9.18;3.85;;;12.10;99.90;;;;;;5019875;28;20038;-54
2023/10/26 11:19:08;;;;;;;7.40;3.75;;;12.10;99.90;;;;;;5037308;28;20032;-54
2023/10/26 11:21:34;;;;;;;7.00;3.33;;;12.10;99.90;;;;;;5019844;28;20402;-54
2023/10/26 11:24:01;;;;;;;10.15;3.60;;;12.10;99.90;;;;;;5037070;28;20025;-51
2023/10/26 11:26:27;;;;;;;7.43;3.42;;;12.00;99.90;;;;;;5037250;28;20036;-54
2023/10/26 11:28:52;;;;;;;6.93;3.83;;;12.00;99.90;;;;;;5019331;28;20486;-53
2023/10/26 11:31:34;;;;;;;7.22;3.22;;;12.10;99.90;;;;;;5019640;28;20048;-53
2023/10/26 11:34:04;;;;;;;6.03;3.00;;;12.20;99.90;;;;;;5036905;28;20033;-53
2023/10/26 11:36:30;;;;;;;4.75;2.60;;;12.30;99.90;;;;;;5036889;28;20039;-51
2023/10/26 11:38:56;;;;;;;3.78;2.35;;;12.30;99.90;;;;;;5036928;28;20021;-55
2023/10/26 11:41:25;;;;;;;4.43;2.40;;;12.30;99.90;;;;;;5037254;28;20552;-54
2023/10/26 11:43:51;;;;;;;4.90;2.40;;;12.40;99.90;;;;;;5037367;28;20457;-55
2023/10/26 11:46:31;;;;;;;5.07;2.00;;;12.40;99.90;;;;;;5019323;28;20041;-51
2023/10/26 11:48:56;;;;;;;3.15;1.73;;;12.50;99.90;;;;;;5018653;28;20057;-54
2023/10/26 11:51:22;;;;;;;3.35;1.70;;;12.60;99.90;;;;;;5036867;28;20026;-54
2023/10/26 11:53:47;;;;;;;3.08;1.50;;;12.60;99.90;;;;;;5019342;28;20037;-53
2023/10/26 11:56:13;;;;;;;4.55;1.83;;;12.60;99.90;;;;;;5036813;28;20087;-52
2023/10/26 11:58:39;;;;;;;3.55;1.70;;;12.60;99.90;;;;;;5036631;28;20116;-51
2023/10/26 12:01:05;;;;;;;2.80;1.60;;;12.60;99.90;;;;;;5036796;28;20052;-52
2023/10/26 12:03:31;;;;;;;2.60;1.38;;;12.60;99.90;;;;;;5018898;28;20033;-54
2023/10/26 12:05:57;;;;;;;2.00;1.30;;;12.60;99.90;;;;;;5036051;28;20116;-51
2023/10/26 12:08:22;;;;;;;3.38;1.60;;;12.60;99.90;;;;;;5036322;28;20071;-49
2023/10/26 12:10:48;;;;;;;2.28;1.55;;;12.50;99.90;;;;;;5036246;28;20029;-51
2023/10/26 12:13:14;;;;;;;2.90;1.60;;;12.50;99.90;;;;;;5036699;28;20037;-53
2023/10/26 12:15:39;;;;;;;3.28;1.77;;;12.40;99.90;;;;;;5036270;28;20112;-54
2023/10/26 12:18:06;;;;;;;2.95;1.52;;;12.30;99.90;;;;;;5035856;28;20029;-53
2023/10/26 12:20:32;;;;;;;3.05;1.60;;;12.30;99.90;;;;;;5035449;28;20063;-54
2023/10/26 12:22:57;;;;;;;2.72;1.38;;;12.40;99.90;;;;;;5036301;28;20037;-53
2023/10/26 12:25:23;;;;;;;3.30;1.30;;;12.50;99.90;;;;;;5036467;28;20040;-49
2023/10/26 12:27:49;;;;;;;3.17;1.42;;;12.50;99.90;;;;;;5035192;28;20049;-52
2023/10/26 12:30:14;;;;;;;2.72;1.63;;;12.60;99.90;;;;;;5035791;28;20466;-53
2023/10/26 12:32:40;;;;;;;1.98;1.33;;;12.60;99.90;;;;;;5036217;28;20352;-52
2023/10/26 12:35:06;;;;;;;2.47;1.50;;;12.60;99.90;;;;;;5035710;28;20052;-53
2023/10/26 12:37:32;;;;;;;3.28;1.63;;;12.60;99.90;;;;;;5035813;28;20052;-54